Latest Weather Observations for Warrnambool

IDV60801

Issued at 4:12 pm EST Monday 15 July 2024 (issued every 10 minutes, with the page automatically refreshed every 10 minutes)

About weather observations | Map of weather stations | Latest weather observations for VIC | Other Formats
Station Details ID: 090186 Name: WARRNAMBOOL AIRPORT NDB Lat: -38.29 Lon: 142.45 Height: 70.8 m
Data from the previous 72 hours. | See also: Recent months at Warrnambool
Date/Time
EST
Temp
°C
App
Temp
°C
Dew
Point
°C
Rel
Hum
%
Delta-T
°C
Wind Press
QNH
hPa
Press
MSL
hPa
Rain since
9am
mm
Dir  Spd
km/h
Gust
km/h
Spd
kts
Gust
kts
15/04:05pm 9.2 1.7 8.0 92 0.6 SSW 37 50 20 27 1009.0 1009.1 1.4
15/04:00pm 9.3 1.4 7.7 90 0.8 SW 39 57 21 31 1008.9 1009.0 1.2
15/03:59pm 9.2 1.2 7.6 90 0.8 SW 39 57 21 31 1008.8 1008.9 1.2
15/03:46pm 9.6 1.1 6.9 83 1.3 SW 41 52 22 28 1008.8 1008.9 1.2
15/03:32pm 8.9 0.2 7.5 91 0.7 SSW 43 61 23 33 1008.9 1009.0 1.0
15/03:30pm 9.0 0.1 7.8 92 0.6 SSW 44 61 24 33 1008.9 1009.0 1.0
15/03:26pm 9.1 0.4 7.9 92 0.6 SSW 43 59 23 32 1009.0 1009.1 0.8
15/03:21pm 9.4 1.9 8.0 91 0.7 SW 37 59 20 32 1008.9 1009.0 0.8
15/03:19pm 9.5 2.2 7.4 87 1.0 SW 35 59 19 32 1008.9 1009.0 0.8
15/03:16pm 9.3 2.0 7.3 87 0.9 SW 35 46 19 25 1008.7 1008.8 0.6
15/03:00pm 8.9 0.1 7.4 90 0.7 SSW 43 63 23 34 1008.9 1009.0 0.6
15/02:55pm 8.9 -0.1 6.5 85 1.1 SSW 43 63 23 34 1009.1 1009.2 0.2
15/02:53pm 9.8 1.2 6.7 81 1.5 SSW 41 63 22 34 1008.9 1009.0 0.0
15/02:30pm 11.3 3.0 6.0 70 2.5 SW 39 54 21 29 1008.8 1008.9 0.0
15/02:00pm 11.4 2.6 5.7 68 2.7 SSW 41 57 22 31 1008.9 1009.0 0.0
15/01:59pm 11.4 3.0 5.5 67 2.7 SSW 39 57 21 31 1008.9 1009.0 0.0
15/01:30pm 11.7 3.3 5.8 67 2.8 SSW 39 52 21 28 1009.2 1009.3 0.0
15/01:00pm 10.9 4.0 7.4 79 1.7 SW 33 46 18 25 1009.6 1009.7 0.0
15/12:30pm 11.7 4.6 6.4 70 2.5 SW 33 44 18 24 1010.0 1010.1 0.0
15/12:00pm 12.1 4.2 6.2 67 2.8 SW 37 48 20 26 1010.4 1010.5 0.0
15/11:30am 12.0 4.0 5.9 66 2.9 SSW 37 46 20 25 1010.9 1011.0 0.0
15/11:00am 11.6 4.4 6.1 69 2.6 SSW 33 44 18 24 1011.3 1011.4 0.0
15/10:30am 10.8 3.8 5.8 71 2.3 SSW 32 39 17 21 1011.4 1011.5 0.0
15/10:00am 10.8 4.1 5.8 71 2.3 SSW 30 39 16 21 1011.2 1011.3 0.0
15/09:30am 9.7 4.2 5.7 76 1.8 SSW 24 32 13 17 1011.3 1011.4 0.0
15/09:00am 9.0 4.9 6.3 83 1.2 SSW 17 22 9 12 1011.1 1011.2 14.4
15/08:30am 6.4 3.7 5.5 94 0.4 W 9 11 5 6 1011.0 1011.1 14.4
15/08:00am 6.5 3.8 5.6 94 0.4 WSW 9 11 5 6 1010.9 1011.0 14.4
15/07:30am 6.6 3.5 5.6 93 0.4 WSW 11 15 6 8 1011.0 1011.1 14.4
15/07:00am 6.9 3.9 5.8 93 0.5 W 11 11 6 6 1010.9 1011.0 14.4
15/06:48am 7.1 4.1 5.9 92 0.5 WSW 11 13 6 7 1010.9 1011.0 14.4
15/06:38am 7.5 3.8 6.3 92 0.5 WSW 15 28 8 15 1010.9 1011.0 14.4
15/06:36am 7.7 4.0 6.5 92 0.6 WSW 15 28 8 15 1010.9 1011.0 14.4
15/06:30am 7.9 4.3 6.8 93 0.5 WSW 15 28 8 15 1011.0 1011.1 14.2
15/06:10am 8.0 3.9 6.3 89 0.8 SW 17 24 9 13 1010.8 1010.9 13.6
15/06:00am 7.5 4.2 6.3 92 0.5 SSW 13 15 7 8 1010.8 1010.9 13.4
15/05:56am 7.5 3.8 6.3 92 0.5 SSW 15 19 8 10 1010.8 1010.9 13.2
15/05:31am 7.4 2.8 5.7 89 0.8 SW 19 37 10 20 1011.1 1011.2 12.2
15/05:30am 7.4 3.2 5.9 90 0.7 SW 17 37 9 20 1011.1 1011.2 12.0
15/05:28am 7.5 4.6 6.6 94 0.4 WSW 11 37 6 20 1011.1 1011.2 11.6
15/05:00am 7.8 5.7 6.7 93 0.5 S 7 11 4 6 1011.0 1011.1 11.2
15/04:40am 7.8 4.9 6.4 91 0.6 SW 11 15 6 8 1011.1 1011.2 11.2
15/04:30am 7.8 3.7 6.3 90 0.7 SW 17 28 9 15 1011.1 1011.2 11.0
15/04:15am 7.6 4.3 6.4 92 0.5 SW 13 20 7 11 1011.2 1011.3 9.6
15/04:00am 6.8 3.7 5.7 93 0.5 WNW 11 17 6 9 1011.2 1011.3 9.4
15/03:30am 6.9 4.3 6.0 94 0.4 NNW 9 13 5 7 1011.4 1011.5 9.2
15/03:00am 7.6 3.9 6.5 93 0.5 WSW 15 24 8 13 1011.7 1011.8 9.2
15/02:31am 7.2 3.9 6.6 96 0.3 NNW 13 17 7 9 1011.6 1011.7 9.0
15/02:30am 7.2 3.9 6.6 96 0.3 NNW 13 17 7 9 1011.6 1011.7 9.0
15/02:12am 7.4 4.2 6.8 96 0.3 NW 13 17 7 9 1011.9 1012.0 8.6
15/02:00am 7.2 4.3 6.6 96 0.3 NW 11 13 6 7 1011.9 1012.0 8.2
15/01:30am 7.3 4.8 6.7 96 0.3 WNW 9 13 5 7 1012.1 1012.3 8.2
15/01:12am 7.2 4.3 6.6 96 0.3 WNW 11 15 6 8 1012.2 1012.4 7.8
15/01:09am 7.1 4.2 6.5 96 0.3 WNW 11 15 6 8 1012.3 1012.5 7.6
15/01:00am 7.1 3.8 6.5 96 0.3 WNW 13 19 7 10 1012.3 1012.5 7.6
15/12:49am 7.0 3.4 6.6 97 0.2 WNW 15 22 8 12 1012.5 1012.7 7.2
15/12:30am 6.1 2.6 5.5 96 0.3 WNW 13 20 7 11 1012.6 1012.8 6.8
15/12:00am 6.7 3.0 6.1 96 0.3 WNW 15 19 8 10 1013.0 1013.1 6.8
 
Date/Time
EST
Temp
°C
App
Temp
°C
Dew
Point
°C
Rel
Hum
%
Delta-T
°C
Wind Press
QNH
hPa
Press
MSL
hPa
Rain since
9am
mm
Dir  Spd
km/h
Gust
km/h
Spd
kts
Gust
kts
14/11:30pm 6.7 2.6 6.1 96 0.3 NW 17 19 9 10 1013.2 1013.3 6.8
14/11:00pm 7.1 3.0 6.4 95 0.3 NW 17 20 9 11 1013.6 1013.7 6.8
14/10:40pm 7.4 3.8 6.7 95 0.3 NW 15 19 8 10 1013.9 1014.0 6.8
14/10:30pm 7.6 4.1 7.0 96 0.3 NW 15 17 8 9 1013.9 1014.0 6.8
14/10:02pm 7.5 4.3 6.8 95 0.3 WNW 13 19 7 10 1014.3 1014.4 4.2
14/10:00pm 7.5 4.3 6.8 95 0.3 NW 13 19 7 10 1014.3 1014.4 4.0
14/09:30pm 7.0 3.7 6.4 96 0.3 NW 13 17 7 9 1014.3 1014.4 3.8
14/09:00pm 6.1 2.9 5.1 93 0.4 NW 11 13 6 7 1014.7 1014.8 3.8
14/08:55pm 6.7 3.6 5.7 93 0.4 NW 11 13 6 7 1014.7 1014.8 3.8
14/08:54pm 6.8 3.7 5.7 93 0.5 NW 11 13 6 7 1014.7 1014.8 3.8
14/08:41pm 7.9 4.7 7.0 94 0.4 NW 13 19 7 10 1014.8 1014.9 3.6
14/08:33pm 7.9 5.1 7.0 94 0.4 NW 11 15 6 8 1014.9 1015.0 3.0
14/08:30pm 7.7 4.9 6.8 94 0.4 NW 11 15 6 8 1014.9 1015.0 1.6
14/08:28pm 7.6 4.7 6.5 93 0.5 NW 11 15 6 8 1014.8 1014.9 1.6
14/08:00pm 8.1 3.7 6.4 89 0.8 WSW 19 28 10 15 1015.1 1015.2 1.4
14/07:54pm 8.0 3.5 6.1 88 0.9 W 19 28 10 15 1015.2 1015.3 1.0
14/07:30pm 7.8 4.5 6.3 90 0.7 WNW 13 19 7 10 1015.0 1015.1 0.6
14/07:00pm 7.9 4.6 6.2 89 0.8 W 13 17 7 9 1015.0 1015.1 0.6
14/06:30pm 7.5 4.3 5.3 86 1.0 W 11 13 6 7 1015.0 1015.1 0.6
14/06:00pm 7.5 4.3 5.3 86 1.0 WSW 11 13 6 7 1015.0 1015.1 0.6
14/05:30pm 8.7 6.1 6.3 85 1.1 SSW 9 13 5 7 1015.1 1015.2 0.6
14/05:00pm 10.4 6.4 6.5 77 1.8 SW 17 22 9 12 1015.0 1015.1 0.6
14/04:30pm 11.4 6.9 7.1 75 2.1 SW 20 26 11 14 1015.2 1015.3 0.6
14/04:00pm 11.3 6.9 7.6 78 1.8 SW 20 26 11 14 1015.2 1015.3 0.6
14/03:46pm 11.1 7.2 8.5 84 1.3 SSW 19 20 10 11 1015.2 1015.3 0.6
14/03:30pm 9.5 4.6 6.9 84 1.2 SW 22 39 12 21 1015.4 1015.5 0.6
14/03:00pm 9.9 6.0 7.0 82 1.4 SW 17 22 9 12 1015.3 1015.4 0.2
14/02:30pm 12.4 7.6 7.5 72 2.4 SSW 22 30 12 16 1015.3 1015.4 0.2
14/02:00pm 11.6 6.0 7.1 74 2.2 SSW 26 33 14 18 1015.5 1015.6 0.2
14/01:30pm 11.0 7.5 7.3 78 1.8 SSW 15 20 8 11 1015.7 1015.8 0.2
14/01:00pm 9.6 5.2 6.5 81 1.4 SW 19 22 10 12 1016.2 1016.3 0.2
14/12:30pm 10.6 6.4 7.5 81 1.5 SW 19 22 10 12 1016.6 1016.7 0.2
14/12:00pm 10.0 5.8 7.3 83 1.3 S 19 26 10 14 1017.1 1017.2 0.2
14/11:30am 10.8 5.5 6.9 77 1.9 SSW 24 43 13 23 1017.6 1017.7 0.2
14/11:00am 10.5 5.5 6.5 76 1.9 SSW 22 30 12 16 1017.9 1018.0 0.2
14/10:30am 10.3 6.0 7.2 81 1.5 S 19 24 10 13 1017.9 1018.0 0.2
14/10:11am 9.9 5.3 6.6 80 1.5 S 20 35 11 19 1017.9 1018.0 0.2
14/10:00am 9.9 7.3 7.7 86 1.1 S 11 13 6 7 1017.8 1017.9 0.2
14/09:48am 8.6 5.0 6.6 87 0.9 SSW 15 20 8 11 1017.8 1017.9 0.2
14/09:31am 8.7 3.6 6.0 83 1.2 SW 22 35 12 19 1017.9 1018.0 0.2
14/09:30am 8.9 3.9 6.3 84 1.2 SW 22 35 12 19 1017.9 1018.0 0.2
14/09:00am 8.2 5.0 7.0 92 0.6 SW 13 20 7 11 1017.7 1017.8 4.8
14/08:30am 6.0 3.3 5.4 96 0.3 WSW 9 11 5 6 1017.7 1017.8 4.8
14/08:02am 4.2 0.7 3.6 96 0.2 NW 11 15 6 8 1017.7 1017.8 4.8
14/08:00am 4.1 0.6 3.4 95 0.3 NW 11 15 6 8 1017.8 1017.9 4.8
14/07:49am 4.2 1.7 3.5 95 0.3 W 6 9 3 5 1017.7 1017.8 4.6
14/07:30am 4.0 0.9 3.4 96 0.2 WNW 9 11 5 6 1017.6 1017.7 4.4
14/07:00am 3.6 0.7 2.6 93 0.4 W 7 11 4 6 1017.5 1017.6 4.4
14/06:30am 5.2 1.9 4.5 95 0.3 WNW 11 15 6 8 1017.4 1017.5 4.4
14/06:28am 5.1 1.8 4.4 95 0.3 WNW 11 15 6 8 1017.4 1017.5 4.4
14/06:13am 5.2 1.9 4.3 94 0.4 WNW 11 17 6 9 1017.3 1017.4 4.4
14/06:00am 5.6 2.3 4.6 93 0.4 WNW 11 13 6 7 1017.2 1017.3 4.0
14/05:30am 6.1 3.7 5.4 95 0.3 WSW 7 9 4 5 1017.2 1017.3 4.0
14/05:27am 6.2 4.0 5.5 95 0.3 W 6 7 3 4 1017.2 1017.3 4.0
14/05:11am 6.2 2.7 5.5 95 0.3 WNW 13 17 7 9 1017.1 1017.2 4.0
14/05:00am 6.1 2.2 5.5 96 0.3 WNW 15 20 8 11 1017.2 1017.3 3.8
14/04:57am 6.1 1.9 5.5 96 0.3 WNW 17 20 9 11 1017.3 1017.4 3.8
14/04:40am 5.6 2.0 5.0 96 0.3 WNW 13 17 7 9 1017.4 1017.5 3.8
14/04:30am 5.3 1.6 4.7 96 0.3 NW 13 17 7 9 1017.1 1017.2 3.2
14/04:00am 5.2 2.9 4.6 96 0.3 WNW 6 9 3 5 1017.3 1017.4 3.2
14/03:30am 5.3 1.3 4.9 97 0.2 WNW 15 20 8 11 1017.2 1017.3 3.2
14/03:00am 4.9 0.8 4.3 96 0.3 NW 15 17 8 9 1017.4 1017.5 3.2
14/02:30am 5.6 2.8 5.2 97 0.2 WNW 9 11 5 6 1017.6 1017.7 3.2
14/02:00am 4.2 0.7 3.5 95 0.3 NW 11 13 6 7 1017.4 1017.5 3.0
14/01:30am 5.5 2.2 4.8 95 0.3 NW 11 13 6 7 1017.4 1017.5 3.0
14/01:00am 7.1 4.1 6.2 94 0.4 WNW 11 15 6 8 1017.5 1017.6 3.0
14/12:30am 7.3 4.4 6.4 94 0.4 WNW 11 15 6 8 1017.7 1017.8 3.0
14/12:23am 7.3 3.9 6.1 92 0.5 WNW 13 17 7 9 1017.7 1017.8 3.0
14/12:04am 7.4 2.9 6.0 91 0.6 W 19 24 10 13 1017.8 1017.9 2.8
14/12:00am 7.6 3.6 6.5 93 0.5 W 17 24 9 13 1017.9 1018.0 2.4
 
Date/Time
EST
Temp
°C
App
Temp
°C
Dew
Point
°C
Rel
Hum
%
Delta-T
°C
Wind Press
QNH
hPa
Press
MSL
hPa
Rain since
9am
mm
Dir  Spd
km/h
Gust
km/h
Spd
kts
Gust
kts
13/11:30pm 7.8 4.6 6.9 94 0.4 WSW 13 17 7 9 1018.0 1018.1 2.4
13/11:00pm 7.0 4.5 6.4 96 0.3 WNW 9 15 5 8 1018.2 1018.3 2.2
13/10:30pm 7.3 5.2 6.7 96 0.3 NW 7 9 4 5 1018.3 1018.4 2.2
13/10:00pm 7.4 4.6 6.8 96 0.3 NW 11 15 6 8 1018.3 1018.4 2.2
13/09:30pm 7.4 4.2 7.0 97 0.2 NW 13 17 7 9 1018.2 1018.3 2.0
13/09:00pm 6.2 3.5 5.8 97 0.2 WNW 9 13 5 7 1018.2 1018.3 2.0
13/08:57pm 6.1 3.4 5.7 97 0.2 WNW 9 11 5 6 1018.2 1018.3 2.0
13/08:30pm 5.6 4.5 4.9 95 0.3 CALM 0 0 0 0 1018.1 1018.2 2.0
13/08:09pm 7.1 6.2 6.2 94 0.4 CALM 0 0 0 0 1018.0 1018.1 2.0
13/08:00pm 8.0 7.4 7.2 95 0.4 CALM 0 0 0 0 1018.0 1018.1 2.0
13/07:33pm 8.4 6.5 7.6 95 0.4 SSW 7 11 4 6 1018.0 1018.1 2.0
13/07:30pm 8.4 6.1 7.6 95 0.4 SSW 9 13 5 7 1018.1 1018.2 2.0
13/07:26pm 8.4 5.8 7.6 95 0.4 SW 11 15 6 8 1018.1 1018.2 2.0
13/07:02pm 8.5 5.2 7.9 96 0.3 SW 15 26 8 14 1018.0 1018.1 1.4
13/07:01pm 8.5 5.6 8.1 97 0.2 WSW 13 26 7 14 1018.0 1018.1 1.4
13/07:00pm 8.4 5.9 8.0 97 0.2 WSW 11 22 6 12 1018.0 1018.1 1.2
13/06:30pm 7.8 5.8 6.9 94 0.4 WSW 7 9 4 5 1017.6 1017.7 1.2
13/06:00pm 8.3 6.4 7.5 95 0.4 SSW 7 9 4 5 1017.5 1017.6 1.2
13/05:54pm 8.4 6.1 7.6 95 0.4 SSW 9 11 5 6 1017.5 1017.6 1.2
13/05:47pm 8.4 5.8 7.6 95 0.4 S 11 19 6 10 1017.5 1017.6 1.2
13/05:32pm 8.7 4.4 7.9 95 0.4 SSW 20 28 11 15 1017.5 1017.6 1.2
13/05:30pm 8.8 4.5 8.0 95 0.4 SSW 20 28 11 15 1017.5 1017.6 1.2
13/05:24pm 8.8 4.5 8.0 95 0.4 SSW 20 28 11 15 1017.4 1017.5 1.2
13/05:14pm 9.0 5.0 8.2 95 0.4 SSW 19 24 10 13 1017.3 1017.4 1.2
13/05:00pm 9.2 5.2 8.1 93 0.5 SSW 19 28 10 15 1017.2 1017.3 0.6
13/04:56pm 9.5 6.3 8.4 93 0.5 SSW 15 24 8 13 1017.1 1017.2 0.6
13/04:54pm 9.5 6.3 8.3 92 0.6 SSW 15 17 8 9 1017.1 1017.2 0.6
13/04:37pm 9.7 4.8 8.3 91 0.7 SSW 24 30 13 16 1017.0 1017.1 0.4
13/04:30pm 10.1 5.1 8.2 88 0.9 SSW 24 33 13 18 1017.0 1017.1 0.4
13/04:00pm 11.3 7.8 7.2 76 2.0 SW 15 19 8 10 1016.8 1016.9 0.4
13/03:30pm 11.3 7.4 7.2 76 2.0 SW 17 22 9 12 1016.8 1016.9 0.4
13/03:00pm 11.5 7.7 7.6 77 1.9 SW 17 20 9 11 1016.7 1016.8 0.4
13/02:30pm 11.7 8.7 9.3 85 1.2 WSW 15 20 8 11 1016.6 1016.7 0.4
13/02:00pm 10.2 6.0 8.3 88 0.9 SW 20 28 11 15 1016.8 1016.9 0.4
13/01:45pm 10.8 8.1 8.9 88 0.9 SW 13 17 7 9 1016.9 1017.0 0.4
13/01:30pm 10.3 6.4 8.6 89 0.8 WSW 19 26 10 14 1017.0 1017.1 0.2
13/01:28pm 10.4 6.5 8.7 89 0.8 WSW 19 26 10 14 1017.1 1017.2 0.2
13/01:00pm 11.3 8.2 9.0 86 1.1 W 15 19 8 10 1017.3 1017.4 0.0
13/12:31pm 10.4 6.5 8.8 90 0.8 WSW 19 24 10 13 1017.6 1017.7 0.0
13/12:30pm 10.5 6.7 9.1 91 0.7 WSW 19 24 10 13 1017.6 1017.7 0.0
13/12:11pm 10.7 6.8 8.8 88 0.9 W 19 26 10 14 1017.9 1018.0 0.0
13/12:00pm 11.6 8.4 8.6 82 1.5 WNW 15 20 8 11 1017.9 1018.0 0.0
13/11:30am 11.2 8.5 8.8 85 1.2 WNW 13 20 7 11 1018.2 1018.3 0.0
13/11:00am 11.2 7.9 9.5 89 0.9 NW 17 20 9 11 1018.4 1018.5 0.0
13/10:30am 10.6 7.7 9.5 93 0.6 NW 15 20 8 11 1018.5 1018.6 0.0
13/10:00am 9.1 6.6 8.2 94 0.4 NW 11 15 6 8 1018.6 1018.7 0.0
13/09:35am 9.1 6.3 8.5 96 0.3 WNW 13 19 7 10 1018.4 1018.5 0.0
13/09:30am 8.9 6.0 8.3 96 0.3 WNW 13 19 7 10 1018.3 1018.4 0.0
13/09:17am 8.5 5.9 7.9 96 0.3 WNW 11 13 6 7 1018.2 1018.3 0.0
13/09:11am 8.1 5.8 7.3 95 0.4 WNW 9 13 5 7 1018.2 1018.3 0.0
13/09:00am 7.9 5.5 7.1 95 0.4 WNW 9 17 5 9 1018.2 1018.3 1.4
13/08:45am 7.5 5.1 6.8 95 0.3 WNW 9 13 5 7 1018.0 1018.1 1.2
13/08:30am 7.3 3.3 6.6 95 0.3 NW 17 20 9 11 1017.8 1017.9 1.2
13/08:00am 6.9 2.7 5.8 93 0.5 NW 17 26 9 14 1017.6 1017.7 1.0
13/07:30am 5.2 1.5 4.5 95 0.3 NNW 13 15 7 8 1017.3 1017.4 1.0
13/07:00am 5.8 2.5 4.6 92 0.5 NW 11 13 6 7 1017.1 1017.2 1.0
13/06:30am 7.1 3.8 6.4 95 0.3 WNW 13 20 7 11 1016.8 1016.9 1.0
13/06:00am 5.7 1.7 5.1 96 0.3 NW 15 19 8 10 1016.5 1016.6 1.0
13/05:30am 5.4 2.1 4.4 93 0.4 NW 11 15 6 8 1016.4 1016.5 1.0
13/05:00am 6.6 2.8 5.9 95 0.3 NW 15 17 8 9 1016.2 1016.3 1.0
13/04:30am 5.9 2.0 5.2 95 0.3 NW 15 17 8 9 1016.2 1016.3 1.0
13/04:00am 6.9 3.9 6.2 95 0.3 NW 11 15 6 8 1016.1 1016.2 1.0
13/03:30am 7.0 3.7 6.4 96 0.3 WNW 13 19 7 10 1016.2 1016.3 1.0
13/03:00am 7.1 3.4 6.5 96 0.3 NW 15 17 8 9 1016.2 1016.3 1.0
13/02:30am 8.0 4.5 7.4 96 0.3 NW 15 17 8 9 1015.9 1016.0 1.0
13/02:00am 7.7 4.2 7.1 96 0.3 NW 15 20 8 11 1015.8 1015.9 1.0
13/01:30am 7.9 4.4 7.1 95 0.4 NW 15 20 8 11 1015.7 1015.8 1.0
13/01:00am 8.9 7.1 8.0 94 0.4 WNW 7 11 4 6 1015.7 1015.8 1.0
13/12:30am 9.5 7.1 8.6 94 0.4 NW 11 15 6 8 1015.7 1015.8 1.0
13/12:23am 9.7 7.3 8.8 94 0.4 WNW 11 17 6 9 1015.7 1015.8 1.0
13/12:05am 9.8 6.7 9.0 95 0.4 WNW 15 32 8 17 1016.1 1016.2 0.8
13/12:00am 9.7 7.0 8.9 95 0.4 WNW 13 19 7 10 1016.0 1016.1 0.8
 
Date/Time
EST
Temp
°C
App
Temp
°C
Dew
Point
°C
Rel
Hum
%
Delta-T
°C
Wind Press
QNH
hPa
Press
MSL
hPa
Rain since
9am
mm
Dir  Spd
km/h
Gust
km/h
Spd
kts
Gust
kts
12/11:30pm 9.6 5.6 9.0 96 0.3 NW 20 24 11 13 1015.9 1016.0 0.8
12/11:00pm 9.6 6.1 8.8 95 0.4 NW 17 20 9 11 1015.6 1015.7 0.8
12/10:30pm 10.1 6.4 9.5 96 0.3 NW 19 26 10 14 1015.5 1015.6 0.8
12/10:01pm 10.1 6.7 9.3 95 0.4 NW 17 20 9 11 1015.4 1015.5 0.8
12/10:00pm 10.1 6.7 9.3 95 0.4 NW 17 20 9 11 1015.4 1015.5 0.8
12/09:37pm 10.2 6.5 9.4 95 0.4 NW 19 24 10 13 1015.5 1015.6 0.6
12/09:30pm 10.2 6.5 9.4 95 0.4 NW 19 24 10 13 1015.4 1015.5 0.6
12/09:00pm 10.2 6.8 9.3 94 0.4 NW 17 22 9 12 1015.3 1015.4 0.6
12/08:30pm 10.1 6.7 9.0 93 0.5 NW 17 20 9 11 1015.1 1015.2 0.6
12/08:15pm 10.0 6.9 8.9 93 0.5 WNW 15 20 8 11 1015.1 1015.2 0.6
12/08:00pm 10.2 6.8 9.1 93 0.5 W 17 24 9 13 1015.1 1015.2 0.6
12/07:51pm 9.9 7.4 8.3 90 0.8 WNW 11 19 6 10 1015.2 1015.3 0.2
12/07:30pm 9.7 6.1 8.5 92 0.6 NNW 17 19 9 10 1014.8 1014.9 0.0
12/07:00pm 7.7 4.4 6.3 91 0.6 NW 13 17 7 9 1014.6 1014.7 0.0
12/06:30pm 9.8 7.5 7.6 86 1.1 WNW 9 11 5 6 1014.5 1014.6 0.0
12/06:00pm 10.9 8.8 8.1 83 1.4 WNW 9 13 5 7 1014.1 1014.2 0.0
12/05:30pm 11.8 9.7 8.3 79 1.7 WNW 9 15 5 8 1013.8 1013.9 0.0
12/05:00pm 12.2 9.0 8.5 78 1.8 NW 15 20 8 11 1013.7 1013.8 0.0
12/04:30pm 13.4 8.9 8.5 72 2.5 NW 22 30 12 16 1013.6 1013.7 0.0

Other formats

Comma delimited format used in spreadsheet applications
http://www.bom.gov.au/fwo/IDV60801/IDV60801.94837.axf

JavaScript Object Notation format (JSON) in row-major order
http://www.bom.gov.au/fwo/IDV60801/IDV60801.94837.json

Data quality

Most of these data are generated automatically and are frequently updated. Quality checks on data are not normally performed. It is possible for incorrect values to appear. Refer to information at About Latest Weather Observations and please check the disclaimer before using these data.